Time;durP1;ratioP1;P1;durP2;ratioP2;P2;SDS_P1;SDS_P2;PMS_P1;PMS_P2;Temp;Humidity;BMP_temperature;BMP_pressure;BME280_temperature;BME280_humidity;BME280_pressure;Samples;Min_cycle;Max_cycle;Signal;HPM_P1;HPM_P2
2023/06/10 08:57:26;;;;;;;13.60;6.05;;;;;;;24.29;46.27;101317.78;5088498;27;20901;-71
2023/06/10 08:59:53;;;;;;;9.20;5.65;;;;;;;24.31;46.14;101316.38;5082242;28;20032;-71
2023/06/10 09:02:20;;;;;;;12.98;6.13;;;;;;;24.33;46.46;101313.28;5056513;28;20049;-71
2023/06/10 09:04:47;;;;;;;8.75;5.30;;;;;;;24.56;46.74;101301.19;5049920;28;20025;-71
2023/06/10 09:07:14;;;;;;;8.90;5.32;;;;;;;24.54;45.26;101306.22;5046910;28;20057;-71
2023/06/10 09:09:42;;;;;;;9.20;5.28;;;;;;;24.64;45.43;101301.63;5029931;28;20036;-71
2023/06/10 09:12:07;;;;;;;13.27;5.30;;;;;;;24.70;44.83;101305.91;5029487;28;20113;-74
2023/06/10 09:14:33;;;;;;;12.73;5.57;;;;;;;24.81;44.60;101309.28;5028392;28;20540;-71
2023/06/10 09:16:58;;;;;;;11.88;5.30;;;;;;;24.77;44.18;101300.78;5029470;28;20032;-72
2023/06/10 09:19:26;;;;;;;10.05;5.32;;;;;;;24.91;44.13;101301.56;5047322;28;20021;-70
2023/06/10 09:21:51;;;;;;;7.45;4.65;;;;;;;24.97;44.42;101299.53;5041692;28;20029;-71
2023/06/10 09:24:16;;;;;;;10.65;5.50;;;;;;;25.02;43.39;101301.34;5044413;28;20055;-71
2023/06/10 09:26:44;;;;;;;6.20;5.18;;;;;;;25.06;43.10;101308.72;5028348;28;20132;-70
2023/06/10 09:29:11;;;;;;;8.60;5.07;;;;;;;25.10;42.81;101303.34;5022045;28;20133;-74
2023/06/10 09:31:38;;;;;;;9.57;5.18;;;;;;;25.27;43.94;101303.50;5029535;28;20022;-71
2023/06/10 09:34:14;;;;;;;10.15;5.20;;;;;;;25.33;44.16;101306.97;5029023;28;20488;-70
2023/06/10 09:36:40;;;;;;;13.02;5.47;;;;;;;25.38;44.13;101304.09;5028141;28;20420;-71
2023/06/10 09:39:15;;;;;;;7.53;5.13;;;;;;;25.54;43.75;101304.53;5042134;28;20068;-71
2023/06/10 09:41:41;;;;;;;8.95;5.30;;;;;;;25.54;43.80;101307.31;5027986;28;20114;-72
2023/06/10 09:44:18;;;;;;;11.80;5.20;;;;;;;25.62;43.53;101308.50;5022746;28;20107;-71
2023/06/10 09:46:48;;;;;;;8.90;5.30;;;;;;;25.63;43.95;101305.41;5027996;28;20244;-72
2023/06/10 09:49:13;;;;;;;10.17;4.90;;;;;;;25.77;42.51;101305.34;5028010;28;20029;-72
2023/06/10 09:51:52;;;;;;;6.93;4.63;;;;;;;25.93;43.91;101296.63;5027983;28;20368;-72
2023/06/10 09:54:18;;;;;;;7.38;5.30;;;;;;;25.93;41.91;101302.16;5044249;28;20527;-70
2023/06/10 09:56:47;;;;;;;11.90;5.20;;;;;;;25.97;42.31;101303.16;5028971;28;20052;-71
2023/06/10 09:59:15;;;;;;;10.15;5.10;;;;;;;25.99;42.66;101296.16;5023566;28;20038;-70
2023/06/10 10:01:41;;;;;;;9.82;5.00;;;;;;;26.13;42.00;101292.47;5019773;28;20033;-70
2023/06/10 10:04:09;;;;;;;9.68;5.15;;;;;;;26.11;42.01;101292.00;5044095;28;20417;-71
2023/06/10 10:06:36;;;;;;;8.20;5.38;;;;;;;26.13;41.63;101290.53;5010902;28;20030;-72
2023/06/10 10:09:03;;;;;;;8.30;4.82;;;;;;;26.17;41.22;101291.53;4994644;28;20513;-70
2023/06/10 10:11:31;;;;;;;10.88;5.20;;;;;;;26.21;40.35;101294.50;4980786;28;20449;-70
2023/06/10 10:13:59;;;;;;;6.95;4.78;;;;;;;26.28;40.18;101286.50;4994514;28;20026;-71
2023/06/10 10:16:41;;;;;;;6.57;4.43;;;;;;;26.33;40.97;101280.81;5009569;28;20054;-71
2023/06/10 10:19:17;;;;;;;6.85;4.70;;;;;;;26.44;40.60;101278.56;5009223;28;20046;-72
2023/06/10 10:21:53;;;;;;;7.57;4.88;;;;;;;26.57;40.37;101287.06;4997375;28;20061;-72
2023/06/10 10:24:23;;;;;;;7.40;4.75;;;;;;;26.63;40.40;101285.78;4994374;28;20041;-72
2023/06/10 10:26:50;;;;;;;9.25;4.82;;;;;;;26.75;40.71;101274.06;4994491;28;20102;-73
2023/06/10 10:29:38;;;;;;;10.40;5.05;;;;;;;26.81;40.36;101275.53;4995265;28;20018;-71
2023/06/10 10:32:09;;;;;;;11.38;5.10;;;;;;;26.90;39.79;101276.34;5010870;28;20056;-72
2023/06/10 10:34:49;;;;;;;13.35;4.95;;;;;;;27.07;40.08;101283.91;4995484;28;20103;-71
2023/06/10 10:37:14;;;;;;;10.90;5.07;;;;;;;27.16;39.32;101281.09;4995363;28;20105;-72
2023/06/10 10:39:40;;;;;;;7.07;4.78;;;;;;;27.22;39.42;101275.06;5002232;28;20639;-72
2023/06/10 10:42:10;;;;;;;12.02;5.05;;;;;;;27.32;39.09;101279.47;5014721;28;20465;-71
2023/06/10 10:44:37;;;;;;;5.73;4.50;;;;;;;27.34;38.50;101273.59;5015027;28;20104;-71
2023/06/10 10:47:06;;;;;;;7.18;4.60;;;;;;;27.40;38.23;101277.81;5014907;28;20049;-71
2023/06/10 10:49:33;;;;;;;8.55;4.93;;;;;;;27.63;40.00;101266.50;5030165;28;20461;-72
2023/06/10 10:52:00;;;;;;;11.50;4.63;;;;;;;27.77;38.30;101269.91;5012209;28;20030;-73
2023/06/10 10:54:50;;;;;;;7.72;4.65;;;;;;;27.86;38.88;101278.22;5000009;28;20026;-72
2023/06/10 10:57:23;;;;;;;11.05;5.20;;;;;;;27.89;38.32;101272.00;4993469;28;20050;-72
2023/06/10 10:59:48;;;;;;;6.43;4.88;;;;;;;27.94;38.41;101266.22;4995140;28;20076;-72
2023/06/10 11:02:53;;;;;;;7.97;4.73;;;;;;;27.98;38.20;101272.81;5004107;28;20128;-72
2023/06/10 11:05:32;;;;;;;6.95;4.93;;;;;;;28.07;37.90;101265.22;4993981;28;20281;-68
2023/06/10 11:07:57;;;;;;;7.85;5.30;;;;;;;28.14;36.39;101272.25;4998477;28;20022;-68
2023/06/10 11:10:36;;;;;;;10.07;4.78;;;;;;;28.28;37.68;101262.50;5000073;28;20030;-69
2023/06/10 11:13:14;;;;;;;9.00;4.38;;;;;;;28.32;36.90;101261.84;4994794;28;20033;-70
2023/06/10 11:15:46;;;;;;;7.25;4.70;;;;;;;28.38;36.56;101268.84;4994738;28;20445;-70
2023/06/10 11:18:27;;;;;;;6.88;4.55;;;;;;;28.43;36.59;101255.53;4994364;28;20022;-76
2023/06/10 11:20:55;;;;;;;7.75;4.63;;;;;;;28.51;36.32;101259.41;4992121;28;20022;-71
2023/06/10 11:23:39;;;;;;;8.05;4.70;;;;;;;28.57;35.94;101254.47;4994325;28;20089;-69
2023/06/10 11:26:26;;;;;;;8.90;4.78;;;;;;;28.72;36.00;101251.13;4991251;28;20473;-70
2023/06/10 11:28:54;;;;;;;7.00;4.68;;;;;;;28.80;33.89;101258.56;5011150;28;20081;-69
2023/06/10 11:31:21;;;;;;;6.53;4.72;;;;;;;28.81;34.38;101253.84;4992055;28;20414;-69
2023/06/10 11:33:48;;;;;;;7.97;4.40;;;;;;;28.92;34.89;101254.25;5001100;28;20448;-69
2023/06/10 11:36:14;;;;;;;9.13;4.80;;;;;;;28.96;34.49;101249.63;4993186;28;20449;-70
2023/06/10 11:38:45;;;;;;;8.82;4.30;;;;;;;28.99;34.34;101243.38;4993842;28;20369;-67
2023/06/10 11:41:14;;;;;;;5.68;4.53;;;;;;;29.14;34.93;101239.94;4991452;28;20058;-70
2023/06/10 11:43:46;;;;;;;9.15;4.97;;;;;;;29.30;35.14;101239.31;4994076;28;20026;-69
2023/06/10 11:46:12;;;;;;;8.25;4.25;;;;;;;29.45;34.77;101237.84;5001542;28;20084;-66
2023/06/10 11:48:37;;;;;;;8.88;4.20;;;;;;;29.54;34.29;101246.13;5013830;28;20030;-67
2023/06/10 11:51:07;;;;;;;8.20;4.80;;;;;;;29.53;33.68;101236.94;5004468;28;20113;-70
2023/06/10 11:53:33;;;;;;;11.60;4.78;;;;;;;29.62;34.02;101242.41;4997953;28;20118;-67
2023/06/10 11:55:58;;;;;;;7.78;4.28;;;;;;;29.57;33.47;101237.06;5005560;28;20133;-67
2023/06/10 11:58:23;;;;;;;8.77;4.25;;;;;;;29.63;33.22;101235.69;4993576;28;20034;-68
2023/06/10 12:00:51;;;;;;;10.27;4.40;;;;;;;29.67;32.50;101239.41;4996752;28;20026;-68
2023/06/10 12:03:17;;;;;;;6.53;4.72;;;;;;;29.77;32.58;101236.16;5009502;28;20332;-67
2023/06/10 12:05:55;;;;;;;6.82;4.65;;;;;;;29.76;32.77;101239.28;5013320;28;20354;-67
2023/06/10 12:08:20;;;;;;;7.07;4.35;;;;;;;29.85;32.34;101232.50;4998620;28;20548;-67
2023/06/10 12:10:46;;;;;;;8.55;4.53;;;;;;;29.87;31.65;101226.56;5001027;28;20038;-67
2023/06/10 12:13:11;;;;;;;11.77;4.32;;;;;;;29.93;31.44;101213.19;4997094;28;20034;-66
2023/06/10 12:15:37;;;;;;;8.30;4.53;;;;;;;30.02;31.52;101216.69;4995929;28;20026;-66
2023/06/10 12:18:02;;;;;;;6.60;3.97;;;;;;;30.11;31.13;101219.38;5013336;28;20025;-67
2023/06/10 12:20:30;;;;;;;7.25;4.25;;;;;;;30.10;31.11;101212.94;4996079;28;20029;-67
2023/06/10 12:22:55;;;;;;;6.95;4.40;;;;;;;30.26;31.92;101209.47;5000015;28;20053;-68
2023/06/10 12:25:28;;;;;;;9.93;4.25;;;;;;;30.31;31.43;101217.59;4991578;28;20113;-66
2023/06/10 12:27:57;;;;;;;8.60;3.92;;;;;;;30.54;31.75;101215.94;4993756;28;20027;-68
2023/06/10 12:30:24;;;;;;;8.13;4.40;;;;;;;30.64;30.66;101219.41;4993100;28;20105;-68
2023/06/10 12:32:50;;;;;;;6.38;4.15;;;;;;;30.62;29.26;101208.59;4993549;28;20026;-67
2023/06/10 12:35:21;;;;;;;8.55;4.38;;;;;;;30.63;30.26;101207.41;4996922;28;20029;-67
2023/06/10 12:37:57;;;;;;;7.38;4.22;;;;;;;30.61;30.60;101217.31;5003439;28;20026;-68
2023/06/10 12:40:31;;;;;;;8.35;4.00;;;;;;;30.67;29.86;101208.34;5008297;28;20136;-69
2023/06/10 12:42:56;;;;;;;8.00;4.18;;;;;;;30.66;29.59;101205.91;4993386;28;20019;-67
2023/06/10 12:45:39;;;;;;;8.70;4.50;;;;;;;30.67;29.71;101213.91;4993012;28;20053;-67
2023/06/10 12:48:22;;;;;;;8.40;3.92;;;;;;;30.76;30.06;101211.00;4991375;28;20034;-68
2023/06/10 12:50:54;;;;;;;4.45;3.80;;;;;;;30.83;29.57;101211.19;4992462;28;20473;-67
2023/06/10 12:53:22;;;;;;;5.30;4.22;;;;;;;30.88;29.57;101204.53;4993115;28;20073;-68
2023/06/10 12:55:49;;;;;;;8.57;4.47;;;;;;;30.95;29.40;101209.50;4991307;28;20038;-69
2023/06/10 12:58:14;;;;;;;6.65;4.40;;;;;;;30.95;29.66;101213.13;5005495;28;20041;-68
2023/06/10 13:00:41;;;;;;;6.60;4.22;;;;;;;31.08;29.73;101211.91;5009658;28;20740;-65
2023/06/10 13:03:08;;;;;;;8.48;4.22;;;;;;;31.17;29.53;101208.97;5017415;28;20038;-68
2023/06/10 13:05:38;;;;;;;7.18;4.05;;;;;;;31.25;29.92;101208.00;5002600;28;20034;-68
2023/06/10 13:08:07;;;;;;;5.82;4.00;;;;;;;31.49;29.15;101206.22;5012526;28;20034;-66
2023/06/10 13:10:34;;;;;;;5.57;4.10;;;;;;;31.62;29.28;101204.97;4995332;28;20030;-67
2023/06/10 13:13:01;;;;;;;5.05;3.95;;;;;;;31.52;28.28;101201.88;5006761;28;20108;-68
2023/06/10 13:15:26;;;;;;;6.55;4.40;;;;;;;31.54;27.96;101194.78;5012444;28;20117;-69
2023/06/10 13:17:52;;;;;;;7.10;3.90;;;;;;;31.38;28.01;101199.53;5012402;28;20129;-68
2023/06/10 13:20:18;;;;;;;9.93;4.25;;;;;;;31.07;28.28;101203.88;5012665;28;20053;-68
2023/06/10 13:22:43;;;;;;;8.93;4.55;;;;;;;30.81;27.90;101193.97;5005875;28;20365;-69
2023/06/10 13:25:09;;;;;;;4.72;4.05;;;;;;;30.66;28.80;101197.53;4986692;28;20030;-69
2023/06/10 13:27:38;;;;;;;7.30;4.30;;;;;;;30.60;28.93;101193.34;4985559;28;20041;-70
2023/06/10 13:30:05;;;;;;;7.32;3.97;;;;;;;30.87;29.00;101192.53;4992247;28;20026;-70
2023/06/10 13:32:31;;;;;;;6.57;4.10;;;;;;;31.26;29.67;101184.44;4992784;28;20485;-70
2023/06/10 13:34:56;;;;;;;11.90;4.07;;;;;;;31.36;28.89;101185.09;4992709;28;20034;-70
2023/06/10 13:37:22;;;;;;;8.73;4.13;;;;;;;31.38;27.62;101182.75;4992625;28;20034;-68
2023/06/10 13:39:50;;;;;;;7.68;4.22;;;;;;;31.52;27.48;101188.72;4992184;28;20124;-68
2023/06/10 13:42:18;;;;;;;6.72;3.95;;;;;;;31.55;26.85;101170.44;4999196;28;20030;-71
2023/06/10 13:44:44;;;;;;;8.55;4.30;;;;;;;31.73;27.44;101173.66;5015851;28;20464;-69
2023/06/10 13:47:10;;;;;;;6.15;4.13;;;;;;;31.97;27.91;101178.25;5015853;28;20083;-68
2023/06/10 13:49:35;;;;;;;8.57;4.25;;;;;;;31.95;27.61;101164.63;5009467;28;20450;-69
2023/06/10 13:52:01;;;;;;;5.00;3.85;;;;;;;32.10;26.92;101165.78;5016036;28;20026;-68
2023/06/10 13:54:27;;;;;;;10.32;4.32;;;;;;;32.02;26.39;101163.94;5012925;28;20029;-69
2023/06/10 13:56:52;;;;;;;5.15;4.03;;;;;;;32.18;26.26;101163.16;5012626;28;20052;-68
2023/06/10 13:59:19;;;;;;;5.97;3.53;;;;;;;32.27;26.16;101163.75;5015351;28;20034;-69
2023/06/10 14:01:44;;;;;;;8.52;4.43;;;;;;;32.27;26.69;101160.94;5007102;28;20511;-69
2023/06/10 14:04:10;;;;;;;5.88;3.80;;;;;;;32.33;26.26;101151.88;5015860;28;20115;-69
2023/06/10 14:06:35;;;;;;;7.40;3.63;;;;;;;32.39;26.26;101152.41;5015477;28;20369;-69
2023/06/10 14:09:00;;;;;;;8.13;4.40;;;;;;;32.41;25.86;101158.44;5017175;28;20105;-69
2023/06/10 14:11:26;;;;;;;7.10;3.85;;;;;;;32.32;25.56;101150.28;5006233;28;20794;-69
2023/06/10 14:13:51;;;;;;;8.27;4.20;;;;;;;32.26;25.68;101150.91;5015670;28;20416;-70
2023/06/10 14:16:16;;;;;;;4.82;4.00;;;;;;;32.25;26.19;101144.53;5015313;28;20284;-69
2023/06/10 14:18:42;;;;;;;10.50;4.18;;;;;;;32.35;26.66;101153.50;5015483;28;20427;-69
2023/06/10 14:21:07;;;;;;;4.97;3.65;;;;;;;32.48;26.28;101163.41;5015403;28;20026;-69
2023/06/10 14:23:33;;;;;;;10.02;3.92;;;;;;;32.38;26.37;101152.78;5004722;28;20514;-69
2023/06/10 14:25:59;;;;;;;8.15;4.60;;;;;;;32.24;27.19;101153.28;4995815;28;20030;-68
2023/06/10 14:28:25;;;;;;;8.32;4.20;;;;;;;32.09;27.10;101154.94;4997450;28;20109;-68
2023/06/10 14:30:51;;;;;;;6.13;4.45;;;;;;;32.09;26.67;101152.13;5009791;28;20057;-68
2023/06/10 14:33:16;;;;;;;5.22;3.85;;;;;;;32.14;27.50;101149.06;4995588;28;20474;-68
2023/06/10 14:35:42;;;;;;;8.67;4.20;;;;;;;32.17;27.47;101141.91;4995585;28;20421;-69
2023/06/10 14:38:08;;;;;;;6.68;4.18;;;;;;;32.24;27.27;101148.50;4994296;28;20288;-68
2023/06/10 14:40:33;;;;;;;6.13;3.90;;;;;;;32.51;26.83;101146.66;5013933;28;20026;-71
2023/06/10 14:43:01;;;;;;;6.80;4.07;;;;;;;32.57;26.65;101144.38;5004981;28;20092;-74
2023/06/10 14:45:26;;;;;;;6.32;4.32;;;;;;;32.64;26.52;101141.72;5006771;28;20471;-73
2023/06/10 14:47:52;;;;;;;8.05;4.05;;;;;;;32.75;26.24;101138.34;5007265;28;20026;-71
2023/06/10 14:50:17;;;;;;;5.82;4.13;;;;;;;32.70;25.69;101144.25;5005092;28;20041;-69
2023/06/10 14:52:42;;;;;;;5.28;3.70;;;;;;;32.88;25.71;101144.59;5009602;28;20022;-70
2023/06/10 14:55:08;;;;;;;8.15;4.13;;;;;;;32.73;26.23;101140.72;5014599;28;20509;-69
2023/06/10 14:57:33;;;;;;;6.60;4.07;;;;;;;32.65;26.63;101137.75;5013042;28;20054;-71
2023/06/10 14:59:59;;;;;;;8.40;4.03;;;;;;;32.67;26.03;101131.78;5013468;28;20480;-69
2023/06/10 15:02:25;;;;;;;10.85;4.35;;;;;;;32.66;26.21;101130.19;5004737;28;20324;-68
2023/06/10 15:04:50;;;;;;;6.93;4.10;;;;;;;32.78;26.23;101134.81;5002554;28;20037;-70
2023/06/10 15:07:15;;;;;;;8.57;4.28;;;;;;;32.69;25.58;101129.44;5013336;28;20076;-70
2023/06/10 15:09:44;;;;;;;6.03;4.30;;;;;;;32.45;25.62;101128.53;5014391;28;20022;-69
2023/06/10 15:12:10;;;;;;;5.22;4.15;;;;;;;32.18;26.55;101129.56;5010740;28;20347;-71
2023/06/10 15:14:36;;;;;;;7.63;4.07;;;;;;;31.94;25.98;101125.78;5013212;28;20022;-69
2023/06/10 15:17:01;;;;;;;6.32;3.90;;;;;;;32.04;26.39;101125.22;5014140;28;20098;-70
2023/06/10 15:19:27;;;;;;;5.57;3.60;;;;;;;32.09;26.78;101122.13;5014174;28;20033;-70
2023/06/10 15:21:52;;;;;;;8.32;4.28;;;;;;;32.21;26.74;101126.81;5014300;28;20026;-72
2023/06/10 15:24:18;;;;;;;9.38;3.88;;;;;;;32.02;25.91;101135.16;5013014;28;20033;-70
2023/06/10 15:26:43;;;;;;;8.25;3.90;;;;;;;31.76;26.39;101131.78;5004542;28;20030;-71
2023/06/10 15:29:09;;;;;;;10.10;3.83;;;;;;;31.56;26.59;101130.09;5012797;28;20104;-69
2023/06/10 15:31:35;;;;;;;6.80;4.18;;;;;;;31.37;27.63;101128.81;5013673;28;20269;-70
2023/06/10 15:34:01;;;;;;;5.32;4.32;;;;;;;31.17;27.02;101127.91;5014057;28;20021;-70
2023/06/10 15:36:26;;;;;;;11.20;4.28;;;;;;;31.31;27.38;101129.44;5013731;28;20022;-71
2023/06/10 15:38:52;;;;;;;10.85;5.43;;;;;;;31.44;27.33;101117.81;5013940;28;20037;-70
2023/06/10 15:41:18;;;;;;;5.78;4.60;;;;;;;31.53;26.36;101120.41;5013878;28;20033;-68
2023/06/10 15:43:43;;;;;;;6.97;3.90;;;;;;;31.48;26.42;101119.88;5007785;28;20029;-69
2023/06/10 15:46:09;;;;;;;6.32;4.43;;;;;;;31.73;26.48;101129.72;5013817;28;20766;-69
2023/06/10 15:48:34;;;;;;;6.97;4.20;;;;;;;31.77;26.94;101118.63;5011626;28;20025;-67
2023/06/10 15:50:59;;;;;;;7.07;4.10;;;;;;;32.08;26.98;101123.34;5013823;28;20261;-68
2023/06/10 15:53:24;;;;;;;4.90;3.80;;;;;;;32.75;26.83;101110.31;4978846;28;20340;-69
2023/06/10 15:55:50;;;;;;;6.27;4.03;;;;;;;32.99;25.99;101112.78;4992191;28;20396;-68
2023/06/10 15:58:15;;;;;;;6.37;3.93;;;;;;;33.45;24.86;101120.41;4994127;28;20030;-68
2023/06/10 16:00:40;;;;;;;5.40;3.90;;;;;;;33.41;24.03;101118.72;4990980;28;20363;-68
2023/06/10 16:03:06;;;;;;;5.03;3.63;;;;;;;33.25;24.45;101108.47;5013449;28;20916;-70
2023/06/10 16:05:31;;;;;;;6.80;3.72;;;;;;;32.97;24.69;101117.13;5006089;28;20033;-73
2023/06/10 16:07:57;;;;;;;5.47;4.00;;;;;;;32.70;25.39;101117.03;4996592;28;20029;-69
